createdAt,value
2018-03-30T00:01:23.902Z,90.10
2018-03-30T00:02:23.909Z,90.67
2018-03-30T00:04:16.793Z,90.77
2018-03-30T00:05:16.806Z,91.14
2018-03-30T00:07:09.722Z,90.95
2018-03-30T00:08:09.714Z,90.67
2018-03-30T00:10:02.611Z,91.05
2018-03-30T00:11:02.623Z,90.67
2018-03-30T00:12:55.536Z,90.77
2018-03-30T00:13:55.530Z,89.91
2018-03-30T00:15:48.448Z,90.20
2018-03-30T00:16:48.448Z,89.63
2018-03-30T00:18:41.337Z,89.53
2018-03-30T00:19:41.353Z,89.44
2018-03-30T00:21:34.270Z,89.53
2018-03-30T00:22:34.265Z,89.44
2018-03-30T00:24:27.161Z,89.25
2018-03-30T00:25:27.172Z,88.96
2018-03-30T00:27:20.084Z,89.15
2018-03-30T00:28:20.138Z,88.87
2018-03-30T00:30:12.973Z,88.78
2018-03-30T00:31:12.989Z,89.25
2018-03-30T00:33:06.392Z,89.06
2018-03-30T00:34:06.390Z,89.25
2018-03-30T00:35:59.310Z,89.34
2018-03-30T00:36:59.296Z,89.53
2018-03-30T00:38:52.189Z,89.15
2018-03-30T00:39:52.200Z,88.68
2018-03-30T00:41:45.275Z,89.06
2018-03-30T00:42:45.265Z,88.68
2018-03-30T00:44:38.161Z,89.25
2018-03-30T00:45:38.172Z,89.25
2018-03-30T00:47:31.083Z,89.15
2018-03-30T00:48:31.078Z,88.87
2018-03-30T00:50:23.970Z,88.68
2018-03-30T00:51:23.984Z,88.87
2018-03-30T00:53:16.898Z,88.78
2018-03-30T00:54:16.891Z,89.25
2018-03-30T00:56:09.817Z,89.15
2018-03-30T00:57:09.809Z,89.25
2018-03-30T00:59:02.695Z,89.34
2018-03-30T01:00:02.709Z,89.63
2018-03-30T01:01:55.620Z,89.25
2018-03-30T01:02:55.679Z,89.63
2018-03-30T01:04:48.519Z,89.25
2018-03-30T01:05:48.520Z,89.44
2018-03-30T01:07:41.431Z,88.96
2018-03-30T01:08:41.437Z,89.44
2018-03-30T01:10:34.330Z,89.25
2018-03-30T01:11:34.367Z,89.15
2018-03-30T01:13:27.257Z,89.06
2018-03-30T01:14:27.250Z,89.34
2018-03-30T01:16:20.186Z,89.34
2018-03-30T01:17:20.165Z,89.06
2018-03-30T01:19:13.055Z,89.15
2018-03-30T01:20:13.131Z,89.25
2018-03-30T01:22:06.011Z,89.06
2018-03-30T01:23:05.986Z,88.40
2018-03-30T01:24:58.879Z,88.87
2018-03-30T01:25:58.893Z,88.87
2018-03-30T01:27:51.806Z,88.59
2018-03-30T01:28:51.801Z,88.68
2018-03-30T01:30:44.751Z,88.49
2018-03-30T01:31:44.709Z,88.40
2018-03-30T01:33:37.622Z,88.68
2018-03-30T01:34:37.616Z,88.68
2018-03-30T01:36:30.532Z,88.78
2018-03-30T01:37:30.525Z,88.40
2018-03-30T01:39:23.428Z,88.59
2018-03-30T01:40:23.430Z,88.49
2018-03-30T01:42:16.345Z,88.68
2018-03-30T01:43:16.340Z,88.59
2018-03-30T01:45:09.232Z,88.59
2018-03-30T01:46:09.247Z,88.78
2018-03-30T01:48:02.344Z,87.73
2018-03-30T01:49:02.338Z,87.83
2018-03-30T01:50:55.232Z,88.02
2018-03-30T01:51:55.246Z,88.40
2018-03-30T01:53:48.156Z,88.30
2018-03-30T01:54:48.148Z,88.11
2018-03-30T01:56:41.086Z,87.73
2018-03-30T01:57:41.057Z,87.54
2018-03-30T01:59:34.191Z,87.07
2018-03-30T02:00:34.141Z,86.88
2018-03-30T02:02:28.049Z,87.83
2018-03-30T02:03:28.047Z,87.35
2018-03-30T02:05:20.938Z,87.16
2018-03-30T02:06:20.952Z,86.88
2018-03-30T02:08:13.892Z,86.60
2018-03-30T02:09:13.865Z,87.26
2018-03-30T02:11:06.759Z,87.16
2018-03-30T02:12:06.771Z,87.16
2018-03-30T02:13:59.687Z,86.22
2018-03-30T02:14:59.679Z,86.22
2018-03-30T02:16:52.592Z,86.31
2018-03-30T02:17:52.587Z,86.50
2018-03-30T02:19:45.480Z,86.50
2018-03-30T02:20:45.494Z,86.69
2018-03-30T02:22:38.407Z,86.22
2018-03-30T02:23:38.400Z,86.98
2018-03-30T02:25:31.294Z,86.98
2018-03-30T02:26:31.307Z,87.16
2018-03-30T02:28:24.401Z,86.98
2018-03-30T02:29:24.396Z,86.98
2018-03-30T02:31:18.292Z,87.16
2018-03-30T02:32:18.306Z,87.16
2018-03-30T02:34:11.216Z,86.31
2018-03-30T02:35:11.221Z,86.60
2018-03-30T02:37:04.123Z,85.93
2018-03-30T02:38:04.117Z,86.31
2018-03-30T02:39:57.011Z,86.41
2018-03-30T02:40:57.033Z,86.31
2018-03-30T02:42:49.942Z,86.41
2018-03-30T02:43:49.935Z,86.31
2018-03-30T02:45:42.826Z,86.60
2018-03-30T02:46:42.839Z,86.31
2018-03-30T02:48:35.753Z,86.98
2018-03-30T02:49:35.759Z,86.79
2018-03-30T02:51:28.641Z,86.98
2018-03-30T02:52:28.657Z,87.26
2018-03-30T02:54:21.569Z,86.41
2018-03-30T02:55:21.564Z,87.35
2018-03-30T02:57:14.475Z,86.50
2018-03-30T02:58:14.472Z,87.26
2018-03-30T03:00:07.360Z,87.26
2018-03-30T03:01:07.374Z,87.16
2018-03-30T03:03:00.470Z,86.98
2018-03-30T03:04:00.465Z,87.45
2018-03-30T03:05:53.361Z,87.07
2018-03-30T03:06:53.379Z,87.16
2018-03-30T03:08:46.286Z,87.16
2018-03-30T03:09:46.282Z,87.26
2018-03-30T03:11:39.174Z,86.60
2018-03-30T03:12:39.185Z,86.41
2018-03-30T03:14:32.103Z,86.41
2018-03-30T03:15:32.101Z,86.31
2018-03-30T03:17:25.011Z,85.88
2018-03-30T03:18:25.005Z,85.60
2018-03-30T03:20:17.903Z,85.88
2018-03-30T03:21:17.914Z,85.31
2018-03-30T03:23:10.829Z,85.13
2018-03-30T03:24:10.825Z,85.13
2018-03-30T03:26:03.738Z,84.94
2018-03-30T03:27:03.727Z,85.03
2018-03-30T03:28:56.684Z,84.55
2018-03-30T03:29:56.634Z,85.41
2018-03-30T03:31:49.533Z,85.31
2018-03-30T03:32:49.543Z,85.13
2018-03-30T03:34:42.459Z,85.41
2018-03-30T03:35:42.454Z,85.60
2018-03-30T03:37:35.365Z,85.41
2018-03-30T03:38:35.361Z,84.94
2018-03-30T03:40:28.262Z,85.31
2018-03-30T03:41:28.275Z,85.41
2018-03-30T03:43:21.188Z,84.94
2018-03-30T03:44:21.185Z,84.84
2018-03-30T03:46:14.083Z,84.65
2018-03-30T03:47:14.095Z,84.46
2018-03-30T03:49:07.011Z,84.55
2018-03-30T03:50:07.007Z,84.46
2018-03-30T03:51:59.907Z,84.55
2018-03-30T03:52:59.918Z,84.08
2018-03-30T03:54:52.829Z,84.55
2018-03-30T03:55:52.825Z,84.17
2018-03-30T03:57:45.734Z,83.89
2018-03-30T03:58:45.730Z,84.65
2018-03-30T04:00:38.623Z,84.74
2018-03-30T04:01:38.638Z,84.65
2018-03-30T04:03:31.599Z,84.74
2018-03-30T04:04:31.544Z,84.27
2018-03-30T04:06:24.483Z,84.55
2018-03-30T04:07:24.463Z,84.36
2018-03-30T04:09:17.378Z,84.55
2018-03-30T04:10:17.372Z,84.74
2018-03-30T04:12:10.265Z,84.55
2018-03-30T04:13:10.279Z,84.55
2018-03-30T04:15:03.193Z,84.46
2018-03-30T04:16:03.189Z,84.46
2018-03-30T04:17:56.103Z,84.84
2018-03-30T04:18:56.099Z,84.74
2018-03-30T04:20:49.091Z,85.03
2018-03-30T04:21:49.007Z,84.84
2018-03-30T04:23:41.920Z,84.94
2018-03-30T04:24:41.916Z,84.84
2018-03-30T04:26:34.852Z,84.84
2018-03-30T04:27:34.832Z,84.84
2018-03-30T04:29:27.740Z,84.84
2018-03-30T04:30:27.734Z,84.84
2018-03-30T04:32:20.634Z,84.74
2018-03-30T04:33:20.648Z,84.65
2018-03-30T04:35:13.559Z,84.84
2018-03-30T04:36:13.555Z,84.74
2018-03-30T04:38:06.478Z,84.46
2018-03-30T04:39:06.477Z,84.55
2018-03-30T04:40:59.362Z,85.03
2018-03-30T04:41:59.374Z,84.46
2018-03-30T04:43:52.290Z,84.46
2018-03-30T04:44:52.286Z,84.55
2018-03-30T04:46:45.182Z,84.65
2018-03-30T04:47:45.196Z,84.55
2018-03-30T04:49:38.113Z,84.27
2018-03-30T04:50:38.109Z,84.94
2018-03-30T04:52:31.005Z,84.84
2018-03-30T04:53:31.024Z,84.84
2018-03-30T04:55:23.932Z,84.74
2018-03-30T04:56:23.928Z,84.94
2018-03-30T04:58:16.844Z,85.31
2018-03-30T04:59:16.838Z,85.03
2018-03-30T05:01:09.731Z,85.13
2018-03-30T05:02:09.744Z,85.22
2018-03-30T05:04:02.657Z,84.84
2018-03-30T05:05:02.652Z,84.74
2018-03-30T05:06:55.549Z,84.84
2018-03-30T05:07:55.635Z,84.55
2018-03-30T05:09:48.480Z,84.84
2018-03-30T05:10:48.474Z,85.03
2018-03-30T05:12:41.371Z,84.94
2018-03-30T05:13:41.394Z,84.94
2018-03-30T05:15:34.302Z,85.17
2018-03-30T05:16:34.347Z,84.50
2018-03-30T05:18:28.202Z,84.88
2018-03-30T05:19:28.199Z,84.78
2018-03-30T05:21:21.093Z,84.59
2018-03-30T05:22:21.106Z,84.59
2018-03-30T05:24:14.021Z,84.69
2018-03-30T05:25:14.027Z,84.69
2018-03-30T05:27:06.912Z,84.88
2018-03-30T05:28:06.929Z,84.88
2018-03-30T05:29:59.838Z,85.26
2018-03-30T05:30:59.836Z,84.59
2018-03-30T05:32:52.735Z,84.50
2018-03-30T05:33:53.290Z,84.59
2018-03-30T05:35:45.657Z,84.59
2018-03-30T05:36:45.656Z,84.41
2018-03-30T05:38:38.568Z,84.78
2018-03-30T05:39:38.562Z,84.88
2018-03-30T05:41:31.461Z,84.50
2018-03-30T05:42:31.476Z,84.03
2018-03-30T05:44:24.416Z,83.94
2018-03-30T05:45:24.387Z,83.94
2018-03-30T05:47:17.280Z,84.12
2018-03-30T05:48:17.301Z,84.59
2018-03-30T05:50:10.210Z,84.50
2018-03-30T05:51:10.207Z,84.69
2018-03-30T05:53:03.199Z,84.12
2018-03-30T05:54:03.115Z,84.03
2018-03-30T05:55:56.033Z,83.94
2018-03-30T05:56:56.027Z,83.65
2018-03-30T05:58:48.944Z,83.55
2018-03-30T05:59:48.943Z,83.36
2018-03-30T06:01:41.840Z,83.59
2018-03-30T06:02:41.856Z,82.98
2018-03-30T06:04:34.763Z,83.27
2018-03-30T06:05:34.759Z,83.55
2018-03-30T06:07:27.653Z,83.55
2018-03-30T06:08:27.668Z,83.78
2018-03-30T06:10:20.581Z,83.12
2018-03-30T06:11:20.576Z,82.93
2018-03-30T06:13:13.472Z,82.46
2018-03-30T06:14:13.488Z,82.27
2018-03-30T06:16:06.403Z,82.46
2018-03-30T06:17:06.399Z,82.46
2018-03-30T06:18:59.319Z,82.27
2018-03-30T06:19:59.310Z,82.27
2018-03-30T06:21:52.209Z,81.60
2018-03-30T06:22:52.240Z,81.70
2018-03-30T06:24:45.135Z,81.88
2018-03-30T06:25:45.131Z,81.51
2018-03-30T06:27:38.027Z,81.51
2018-03-30T06:28:38.044Z,82.27
2018-03-30T06:30:30.964Z,82.65
2018-03-30T06:31:30.955Z,81.88
2018-03-30T06:33:23.854Z,82.27
2018-03-30T06:34:23.868Z,81.98
2018-03-30T06:36:16.786Z,81.41
2018-03-30T06:37:16.777Z,81.70
2018-03-30T06:39:09.695Z,81.04
2018-03-30T06:40:09.692Z,81.04
2018-03-30T06:42:02.588Z,81.41
2018-03-30T06:43:02.605Z,81.32
2018-03-30T06:44:55.688Z,81.13
2018-03-30T06:45:55.685Z,81.04
2018-03-30T06:47:48.635Z,81.07
2018-03-30T06:48:48.595Z,81.36
2018-03-30T06:50:41.516Z,80.69
2018-03-30T06:51:41.514Z,80.32
2018-03-30T06:53:34.411Z,79.94
2018-03-30T06:54:34.428Z,80.03
2018-03-30T06:56:27.511Z,80.03
2018-03-30T06:57:27.505Z,80.03
2018-03-30T06:59:20.421Z,80.41
2018-03-30T07:00:20.419Z,80.22
2018-03-30T07:02:13.317Z,79.46
2018-03-30T07:03:13.333Z,79.08
2018-03-30T07:05:06.249Z,79.08
2018-03-30T07:06:06.248Z,79.27
2018-03-30T07:07:59.314Z,79.03
2018-03-30T07:08:59.328Z,79.41
2018-03-30T07:10:52.249Z,77.89
2018-03-30T07:11:52.244Z,77.60
2018-03-30T07:13:45.147Z,77.03
2018-03-30T07:14:45.160Z,77.73
2018-03-30T07:16:38.078Z,77.36
2018-03-30T07:17:38.075Z,76.21
2018-03-30T07:19:31.195Z,75.64
2018-03-30T07:20:31.159Z,75.84
2018-03-30T07:22:24.133Z,75.74
2018-03-30T07:23:24.081Z,75.17
2018-03-30T07:25:17.000Z,74.41
2018-03-30T07:26:17.001Z,74.92
2018-03-30T07:28:09.906Z,75.30
2018-03-30T07:29:09.919Z,75.21
2018-03-30T07:31:02.839Z,75.11
2018-03-30T07:32:02.834Z,74.16
2018-03-30T07:33:55.739Z,73.69
2018-03-30T07:34:55.756Z,73.40
2018-03-30T07:36:48.673Z,72.45
2018-03-30T07:37:48.672Z,72.55
2018-03-30T07:39:41.595Z,73.02
2018-03-30T07:40:41.590Z,72.77
2018-03-30T07:42:34.494Z,72.86
2018-03-30T07:43:34.510Z,73.25
2018-03-30T07:45:27.432Z,72.49
2018-03-30T07:46:27.430Z,72.58
2018-03-30T07:48:20.507Z,72.30
2018-03-30T07:49:20.518Z,71.15
2018-03-30T07:51:13.437Z,71.25
2018-03-30T07:52:13.443Z,71.15
2018-03-30T07:54:06.505Z,71.34
2018-03-30T07:55:06.527Z,71.44
2018-03-30T07:56:59.449Z,72.11
2018-03-30T07:57:59.448Z,71.67
2018-03-30T07:59:52.373Z,71.25
2018-03-30T08:00:52.363Z,71.25
2018-03-30T08:02:45.265Z,71.72
2018-03-30T08:03:45.283Z,71.44
2018-03-30T08:05:38.205Z,71.28
2018-03-30T08:06:38.204Z,71.95
2018-03-30T08:08:31.107Z,71.09
2018-03-30T08:09:31.127Z,71.76
2018-03-30T08:11:24.048Z,70.81
2018-03-30T08:12:24.048Z,71.00
2018-03-30T08:14:16.975Z,70.52
2018-03-30T08:15:16.968Z,70.33
2018-03-30T08:17:09.886Z,69.57
2018-03-30T08:18:09.887Z,69.67
2018-03-30T08:20:02.808Z,69.67
2018-03-30T08:21:02.816Z,70.24
2018-03-30T08:22:55.712Z,70.33
2018-03-30T08:23:55.723Z,70.81
2018-03-30T08:25:48.647Z,70.47
2018-03-30T08:26:48.647Z,69.76
2018-03-30T08:28:41.544Z,70.43
2018-03-30T08:29:41.562Z,70.37
2018-03-30T08:31:34.718Z,70.37
2018-03-30T08:32:34.691Z,70.84
2018-03-30T08:34:27.594Z,69.42
2018-03-30T08:35:27.610Z,69.89
2018-03-30T08:37:20.536Z,69.70
2018-03-30T08:38:20.529Z,69.74
2018-03-30T08:40:13.450Z,68.69
2018-03-30T08:41:13.450Z,68.50
2018-03-30T08:43:06.356Z,70.21
2018-03-30T08:44:06.369Z,68.78
2018-03-30T08:45:59.296Z,67.07
2018-03-30T08:46:59.290Z,66.97
2018-03-30T08:48:52.195Z,67.64
2018-03-30T08:49:52.212Z,67.93
2018-03-30T08:51:45.134Z,68.02
2018-03-30T08:52:45.130Z,67.64
2018-03-30T08:54:38.032Z,66.69
2018-03-30T08:55:38.051Z,67.16
2018-03-30T08:57:30.971Z,68.40
2018-03-30T08:58:30.969Z,68.59
2018-03-30T09:00:23.887Z,67.86
2018-03-30T09:01:23.889Z,68.44
2018-03-30T09:03:16.792Z,67.77
2018-03-30T09:04:16.812Z,67.58
2018-03-30T09:06:09.735Z,65.96
2018-03-30T09:07:09.734Z,65.96
2018-03-30T09:09:03.181Z,66.63
2018-03-30T09:10:03.158Z,66.15
2018-03-30T09:11:56.079Z,66.05
2018-03-30T09:12:56.082Z,66.15
2018-03-30T09:14:48.987Z,66.34
2018-03-30T09:15:49.547Z,66.15
2018-03-30T09:17:41.928Z,64.53
2018-03-30T09:18:41.929Z,65.00
2018-03-30T09:20:34.845Z,65.99
2018-03-30T09:21:34.850Z,65.89
2018-03-30T09:23:27.753Z,63.32
2018-03-30T09:24:27.771Z,62.75
2018-03-30T09:26:20.690Z,62.18
2018-03-30T09:27:20.690Z,62.46
2018-03-30T09:29:13.595Z,63.51
2018-03-30T09:30:13.615Z,63.23
2018-03-30T09:32:06.541Z,62.37
2018-03-30T09:33:06.556Z,61.32
2018-03-30T09:34:59.450Z,62.84
2018-03-30T09:35:59.466Z,63.70
2018-03-30T09:37:52.389Z,63.45
2018-03-30T09:38:52.440Z,62.88
2018-03-30T09:40:45.313Z,61.63
2018-03-30T09:41:45.314Z,61.25
2018-03-30T09:43:45.372Z,61.44
2018-03-30T09:44:45.368Z,61.63
2018-03-30T09:46:31.168Z,62.11
2018-03-30T09:47:38.293Z,61.16
2018-03-30T09:49:31.760Z,60.39
2018-03-30T09:50:31.217Z,59.73
2018-03-30T09:52:17.017Z,60.87
2018-03-30T09:53:17.020Z,60.81
2018-03-30T09:55:09.961Z,60.61
2018-03-30T09:56:09.943Z,60.24
2018-03-30T09:58:02.860Z,58.97
2018-03-30T09:59:02.860Z,60.04
2018-03-30T10:00:55.792Z,59.47
2018-03-30T10:02:02.913Z,59.19
2018-03-30T10:03:48.695Z,58.61
2018-03-30T10:04:48.719Z,58.11
2018-03-30T10:06:41.824Z,58.90
2018-03-30T10:07:41.806Z,59.28
2018-03-30T10:09:34.711Z,59.76
2018-03-30T10:10:34.731Z,59.47
2018-03-30T10:12:27.882Z,59.66
2018-03-30T10:13:27.882Z,58.04
2018-03-30T10:15:20.786Z,58.51
2018-03-30T10:16:20.809Z,58.80
2018-03-30T10:18:13.728Z,57.94
2018-03-30T10:19:13.729Z,57.94
2018-03-30T10:21:06.657Z,57.56
2018-03-30T10:22:06.659Z,57.75
2018-03-30T10:23:59.561Z,56.60
2018-03-30T10:24:59.583Z,56.23
2018-03-30T10:26:52.503Z,55.75
2018-03-30T10:27:52.505Z,55.27
2018-03-30T10:29:45.412Z,56.13
2018-03-30T10:30:45.434Z,56.41
2018-03-30T10:32:38.358Z,55.94
2018-03-30T10:33:38.359Z,56.13
2018-03-30T10:35:31.272Z,56.63
2018-03-30T10:36:31.291Z,55.87
2018-03-30T10:38:24.218Z,55.49
2018-03-30T10:39:24.216Z,55.11
2018-03-30T10:41:17.165Z,54.72
2018-03-30T10:42:17.144Z,54.82
2018-03-30T10:44:10.049Z,56.35
2018-03-30T10:45:10.069Z,57.21
2018-03-30T10:47:02.991Z,54.34
2018-03-30T10:48:02.999Z,53.96
2018-03-30T10:49:55.897Z,53.89
2018-03-30T10:50:55.929Z,53.51
2018-03-30T10:52:48.851Z,52.36
2018-03-30T10:53:48.846Z,53.22
2018-03-30T10:55:41.751Z,53.41
2018-03-30T10:56:41.770Z,53.92
2018-03-30T10:58:34.690Z,53.03
2018-03-30T10:59:34.696Z,52.48
2018-03-30T11:01:27.625Z,51.72
2018-03-30T11:02:27.624Z,51.53
2018-03-30T11:04:20.534Z,50.26
2018-03-30T11:05:20.629Z,51.50
2018-03-30T11:07:13.487Z,51.53
2018-03-30T11:08:13.485Z,51.62
2018-03-30T11:10:06.389Z,51.24
2018-03-30T11:11:06.410Z,50.86
2018-03-30T11:13:00.337Z,49.14
2018-03-30T11:14:00.338Z,49.62
2018-03-30T11:15:53.792Z,50.38
2018-03-30T11:16:53.759Z,50.86
2018-03-30T11:18:46.686Z,51.81
2018-03-30T11:19:46.701Z,51.43
2018-03-30T11:21:39.636Z,50.98
2018-03-30T11:22:39.629Z,50.12
2018-03-30T11:24:32.531Z,49.04
2018-03-30T11:25:32.552Z,48.66
2018-03-30T11:27:25.478Z,48.38
2018-03-30T11:28:25.481Z,49.80
2018-03-30T11:30:18.395Z,49.14
2018-03-30T11:31:18.413Z,50.86
2018-03-30T11:33:11.350Z,49.43
2018-03-30T11:34:11.343Z,49.52
2018-03-30T11:36:04.312Z,50.86
2018-03-30T11:37:04.274Z,50.57
2018-03-30T11:38:57.242Z,49.04
2018-03-30T11:39:57.226Z,50.19
2018-03-30T11:41:50.235Z,49.23
2018-03-30T11:42:50.294Z,48.38
2018-03-30T11:44:43.122Z,49.23
2018-03-30T11:45:43.111Z,48.57
2018-03-30T11:47:36.022Z,46.34
2018-03-30T11:48:36.025Z,46.72
2018-03-30T11:50:28.990Z,48.16
2018-03-30T11:51:28.953Z,47.68
2018-03-30T11:53:21.881Z,49.52
2018-03-30T11:54:21.884Z,49.71
2018-03-30T11:56:15.134Z,48.18
2018-03-30T11:57:15.108Z,47.23
2018-03-30T11:59:08.042Z,46.75
2018-03-30T12:00:08.037Z,45.41
2018-03-30T12:02:00.990Z,46.84
2018-03-30T12:03:01.000Z,47.03
2018-03-30T12:04:53.899Z,48.09
2018-03-30T12:05:53.921Z,47.99
2018-03-30T12:07:46.848Z,48.75
2018-03-30T12:08:46.851Z,48.75
2018-03-30T12:10:39.766Z,48.66
2018-03-30T12:11:39.778Z,48.75
2018-03-30T12:13:32.704Z,50.48
2018-03-30T12:14:32.703Z,50.00
2018-03-30T12:16:25.633Z,46.17
2018-03-30T12:17:25.635Z,45.22
2018-03-30T12:19:18.564Z,46.08
2018-03-30T12:20:18.566Z,46.46
2018-03-30T12:22:11.492Z,48.47
2018-03-30T12:23:11.506Z,48.85
2018-03-30T12:25:04.402Z,47.99
2018-03-30T12:26:04.422Z,48.18
2018-03-30T12:27:57.348Z,49.40
2018-03-30T12:28:57.348Z,49.02
2018-03-30T12:30:50.585Z,49.88
2018-03-30T12:31:50.532Z,49.69
2018-03-30T12:33:43.410Z,50.16
2018-03-30T12:34:43.413Z,49.30
2018-03-30T12:36:36.326Z,50.45
2018-03-30T12:37:36.344Z,49.88
2018-03-30T12:39:29.264Z,49.33
2018-03-30T12:40:29.303Z,49.30
2018-03-30T12:42:22.191Z,49.14
2018-03-30T12:43:22.193Z,49.33
2018-03-30T12:45:16.256Z,49.62
2018-03-30T12:46:16.282Z,50.38
2018-03-30T12:48:09.201Z,48.18
2018-03-30T12:49:09.227Z,46.46
2018-03-30T12:51:02.136Z,46.46
2018-03-30T12:52:02.156Z,46.94
2018-03-30T12:53:55.087Z,47.89
2018-03-30T12:54:55.124Z,48.49
2018-03-30T12:56:47.996Z,46.48
2018-03-30T12:57:48.021Z,48.11
2018-03-30T12:59:40.980Z,46.87
2018-03-30T13:00:40.948Z,48.02
2018-03-30T13:02:33.879Z,46.39
2018-03-30T13:03:33.879Z,46.30
2018-03-30T13:05:26.785Z,45.51
2018-03-30T13:06:26.809Z,45.41
2018-03-30T13:08:19.773Z,46.94
2018-03-30T13:09:19.765Z,47.52
2018-03-30T13:11:12.708Z,47.16
2018-03-30T13:12:12.717Z,46.39
2018-03-30T13:14:05.656Z,46.96
2018-03-30T13:15:05.651Z,46.39
2018-03-30T13:16:58.558Z,46.10
2018-03-30T13:17:58.586Z,44.29
2018-03-30T13:19:51.560Z,46.58
2018-03-30T13:20:51.510Z,45.05
2018-03-30T13:22:44.466Z,44.29
2018-03-30T13:23:44.670Z,44.19
2018-03-30T13:25:37.366Z,44.00
2018-03-30T13:26:37.461Z,44.19
2018-03-30T13:28:30.313Z,43.62
2018-03-30T13:29:30.318Z,43.12
2018-03-30T13:31:23.226Z,43.69
2018-03-30T13:32:23.250Z,44.09
2018-03-30T13:34:16.211Z,43.14
2018-03-30T13:35:16.178Z,43.04
2018-03-30T13:37:09.088Z,43.43
2018-03-30T13:38:09.111Z,43.62
2018-03-30T13:40:02.267Z,42.85
2018-03-30T13:41:02.257Z,42.93
2018-03-30T13:42:55.387Z,43.30
2018-03-30T13:43:55.393Z,43.79
2018-03-30T13:45:48.303Z,44.36
2018-03-30T13:46:48.323Z,44.67
2018-03-30T13:48:41.253Z,44.67
2018-03-30T13:49:41.256Z,44.00
2018-03-30T13:51:34.177Z,42.85
2018-03-30T13:52:34.188Z,42.76
2018-03-30T13:54:27.132Z,42.37
2018-03-30T13:55:27.136Z,41.89
2018-03-30T13:57:20.043Z,42.37
2018-03-30T13:58:20.063Z,42.66
2018-03-30T14:00:12.994Z,41.51
2018-03-30T14:01:12.998Z,41.80
2018-03-30T14:03:05.927Z,42.47
2018-03-30T14:04:05.931Z,42.47
2018-03-30T14:05:58.838Z,43.04
2018-03-30T14:06:58.870Z,43.14
2018-03-30T14:08:51.788Z,42.66
2018-03-30T14:09:51.794Z,42.76
2018-03-30T14:11:44.717Z,43.14
2018-03-30T14:12:44.730Z,44.40
2018-03-30T14:14:37.724Z,42.56
2018-03-30T14:15:37.673Z,42.20
2018-03-30T14:17:30.576Z,42.49
2018-03-30T14:18:30.595Z,42.87
2018-03-30T14:20:23.634Z,42.30
2018-03-30T14:21:23.544Z,42.01
2018-03-30T14:23:16.474Z,42.49
2018-03-30T14:24:16.481Z,42.58
2018-03-30T14:26:09.390Z,42.01
2018-03-30T14:27:09.411Z,42.08
2018-03-30T14:29:02.342Z,41.89
2018-03-30T14:30:02.345Z,42.66
2018-03-30T14:31:55.256Z,42.76
2018-03-30T14:32:55.284Z,42.68
2018-03-30T14:34:48.374Z,42.58
2018-03-30T14:35:48.380Z,42.77
2018-03-30T14:37:41.297Z,43.26
2018-03-30T14:38:41.318Z,43.92
2018-03-30T14:40:34.246Z,43.63
2018-03-30T14:41:34.248Z,43.92
2018-03-30T14:43:27.179Z,42.77
2018-03-30T14:44:27.291Z,42.49
2018-03-30T14:46:20.095Z,42.40
2018-03-30T14:47:20.117Z,42.97
2018-03-30T14:49:13.088Z,42.49
2018-03-30T14:50:13.063Z,42.49
2018-03-30T14:52:05.977Z,43.06
2018-03-30T14:53:06.037Z,42.68
2018-03-30T14:54:58.939Z,42.40
2018-03-30T14:55:58.946Z,42.77
2018-03-30T14:57:51.858Z,41.80
2018-03-30T14:58:51.880Z,41.99
2018-03-30T15:00:44.892Z,42.47
2018-03-30T15:01:44.828Z,42.76
2018-03-30T15:03:37.763Z,43.04
2018-03-30T15:04:37.761Z,42.66
2018-03-30T15:06:30.667Z,42.76
2018-03-30T15:07:30.689Z,43.14
2018-03-30T15:09:23.619Z,43.33
2018-03-30T15:10:23.621Z,43.04
2018-03-30T15:12:16.534Z,42.85
2018-03-30T15:13:16.570Z,42.37
2018-03-30T15:15:09.500Z,42.66
2018-03-30T15:16:09.504Z,43.04
2018-03-30T15:18:02.482Z,43.71
2018-03-30T15:19:02.438Z,43.33
2018-03-30T15:20:55.364Z,44.19
2018-03-30T15:21:55.415Z,43.71
2018-03-30T15:23:49.027Z,43.62
2018-03-30T15:24:48.357Z,44.00
2018-03-30T15:26:41.250Z,42.76
2018-03-30T15:27:41.273Z,43.14
2018-03-30T15:29:34.196Z,43.04
2018-03-30T15:30:34.201Z,43.14
2018-03-30T15:32:27.147Z,43.80
2018-03-30T15:33:27.137Z,44.00
2018-03-30T15:35:20.063Z,43.14
2018-03-30T15:36:20.065Z,42.83
2018-03-30T15:38:12.978Z,43.52
2018-03-30T15:39:12.998Z,43.88
2018-03-30T15:41:05.927Z,44.84
2018-03-30T15:42:05.932Z,44.45
2018-03-30T15:43:58.889Z,44.65
2018-03-30T15:44:58.874Z,44.67
2018-03-30T15:46:51.780Z,44.84
2018-03-30T15:47:51.871Z,44.74
2018-03-30T15:49:44.726Z,45.24
2018-03-30T15:50:44.729Z,44.19
2018-03-30T15:52:37.708Z,45.15
2018-03-30T15:53:37.677Z,44.48
2018-03-30T15:55:30.609Z,44.48
2018-03-30T15:56:30.612Z,44.38
2018-03-30T15:58:23.529Z,44.26
2018-03-30T15:59:23.547Z,45.22
2018-03-30T16:01:16.499Z,44.65
2018-03-30T16:02:16.490Z,44.93
2018-03-30T16:04:09.431Z,44.65
2018-03-30T16:05:09.412Z,44.36
2018-03-30T16:07:02.323Z,44.84
2018-03-30T16:08:02.357Z,45.12
2018-03-30T16:09:55.271Z,45.60
2018-03-30T16:10:55.273Z,45.48
2018-03-30T16:12:48.276Z,45.58
2018-03-30T16:13:48.295Z,45.98
2018-03-30T16:15:41.256Z,46.46
2018-03-30T16:16:41.216Z,46.37
2018-03-30T16:18:34.548Z,46.46
2018-03-30T16:19:34.403Z,46.46
2018-03-30T16:21:27.376Z,46.56
2018-03-30T16:22:27.330Z,46.46
2018-03-30T16:24:20.267Z,46.25
2018-03-30T16:25:20.259Z,46.46
2018-03-30T16:27:13.175Z,46.44
2018-03-30T16:28:13.201Z,46.72
2018-03-30T16:30:06.124Z,46.72
2018-03-30T16:31:06.128Z,46.53
2018-03-30T16:32:59.036Z,46.53
2018-03-30T16:33:59.061Z,46.82
2018-03-30T16:35:52.010Z,46.72
2018-03-30T16:36:52.051Z,47.20
2018-03-30T16:38:44.927Z,47.03
2018-03-30T16:39:44.940Z,46.92
2018-03-30T16:41:37.865Z,46.15
2018-03-30T16:42:37.868Z,46.06
2018-03-30T16:44:30.793Z,47.01
2018-03-30T16:45:30.795Z,46.44
2018-03-30T16:47:23.720Z,46.53
2018-03-30T16:48:23.720Z,46.53
2018-03-30T16:50:16.649Z,47.30
2018-03-30T16:51:16.651Z,46.72
2018-03-30T16:53:09.558Z,47.11
2018-03-30T16:54:09.580Z,47.20
2018-03-30T16:56:02.512Z,47.68
2018-03-30T16:57:02.512Z,47.78
2018-03-30T16:58:55.428Z,48.16
2018-03-30T16:59:55.453Z,48.07
2018-03-30T17:01:48.381Z,48.23
2018-03-30T17:02:48.406Z,48.23
2018-03-30T17:04:41.350Z,48.54
2018-03-30T17:05:41.305Z,48.23
2018-03-30T17:07:34.216Z,47.85
2018-03-30T17:08:34.236Z,48.42
2018-03-30T17:10:28.176Z,48.54
2018-03-30T17:11:28.159Z,48.04
2018-03-30T17:13:21.066Z,48.07
2018-03-30T17:14:21.091Z,48.04
2018-03-30T17:16:14.020Z,48.13
2018-03-30T17:17:14.018Z,48.33
2018-03-30T17:19:06.926Z,48.52
2018-03-30T17:20:06.953Z,48.99
2018-03-30T17:22:00.894Z,48.71
2018-03-30T17:23:00.868Z,48.71
2018-03-30T17:24:53.822Z,48.99
2018-03-30T17:25:53.798Z,48.90
2018-03-30T17:27:46.708Z,49.18
2018-03-30T17:28:46.735Z,49.38
2018-03-30T17:30:39.658Z,49.57
2018-03-30T17:31:39.654Z,49.57
2018-03-30T17:33:32.569Z,49.66
2018-03-30T17:34:32.587Z,49.09
2018-03-30T17:36:25.516Z,49.28
2018-03-30T17:37:25.517Z,49.57
2018-03-30T17:39:18.423Z,49.76
2018-03-30T17:40:18.475Z,50.14
2018-03-30T17:42:11.373Z,49.76
2018-03-30T17:43:11.369Z,50.33
2018-03-30T17:45:05.342Z,50.33
2018-03-30T17:46:05.351Z,49.64
2018-03-30T17:47:58.246Z,50.21
2018-03-30T17:48:58.293Z,50.12
2018-03-30T17:50:51.214Z,49.35
2018-03-30T17:51:51.194Z,49.64
2018-03-30T17:53:44.096Z,49.44
2018-03-30T17:54:44.120Z,49.44
2018-03-30T17:56:38.069Z,49.76
2018-03-30T17:57:38.041Z,49.83
2018-03-30T17:59:30.950Z,49.44
2018-03-30T18:00:30.985Z,49.73
2018-03-30T18:02:23.892Z,50.21
2018-03-30T18:03:23.893Z,50.78
2018-03-30T18:05:16.838Z,50.49
2018-03-30T18:06:16.822Z,50.59
2018-03-30T18:08:09.724Z,51.26
2018-03-30T18:09:09.742Z,50.78
2018-03-30T18:11:02.666Z,51.26
2018-03-30T18:12:02.665Z,51.26
2018-03-30T18:13:55.570Z,51.54
2018-03-30T18:14:55.592Z,51.45
2018-03-30T18:16:48.517Z,51.93
2018-03-30T18:17:48.544Z,51.54
2018-03-30T18:19:41.959Z,52.03
2018-03-30T18:20:41.911Z,51.90
2018-03-30T18:22:35.040Z,52.50
2018-03-30T18:23:35.033Z,52.28
2018-03-30T18:25:28.089Z,52.40
2018-03-30T18:26:27.958Z,52.79
2018-03-30T18:28:20.868Z,52.59
2018-03-30T18:29:20.879Z,53.08
2018-03-30T18:31:13.883Z,52.79
2018-03-30T18:32:13.823Z,53.08
2018-03-30T18:34:06.734Z,52.88